Latest Weather Observations for Lake Grace

IDW60801

Issued at 1:32 pm WST Friday 4 September 2015 (issued every 30 minutes, with the page automatically refreshed every 10 minutes)

About weather observations | Map of weather stations | Latest weather observations for WA | Other Formats
Station Details ID: 010911 Name: LAKE GRACE Lat: -33.10 Lon: 118.46 Height: 286.0 m
Data from the previous 72 hours. | See also: Recent months at Lake Grace
Date/Time
WST
Temp
°C
App
Temp
°C
Dew
Point
Rel
Hum
%
Delta-T
°C
Wind Press
QNH
hPa
Press
MSL
hPa
Rain
since 9 am
mm
Dir
 
Spd
km/h
Gust
km/h
Spd
kts
Gust
kts
04/01:30pm 20.0 13.5 2.8 32 8.2 NW 26 35 14 19 1014.0 1013.8 0.0
04/01:00pm 20.0 14.2 2.4 31 8.3 NW 22 35 12 19 1014.6 1014.5 0.0
04/12:30pm 20.4 14.8 3.6 33 8.1 NW 22 32 12 17 1014.8 1014.7 0.0
04/12:00pm 19.2 13.5 3.0 34 7.7 NW 22 37 12 20 1015.5 1015.4 0.0
04/11:30am 18.3 13.5 4.8 41 6.6 NNW 19 32 10 17 1016.0 1015.9 0.0
04/11:00am 17.5 12.8 5.1 44 6.0 NNW 19 28 10 15 1016.2 1016.1 0.0
04/10:30am 16.3 11.3 4.7 46 5.6 NNW 20 32 11 17 1016.5 1016.4 0.0
04/10:00am 15.6 10.5 4.3 47 5.3 N 20 28 11 15 1016.7 1016.6 0.0
04/09:30am 13.8 8.9 4.9 55 4.2 N 20 28 11 15 1017.1 1016.9 0.0
04/09:00am 12.3 6.9 4.5 59 3.6 N 22 30 12 16 1017.4 1017.3 0.0
04/08:30am 10.9 6.7 5.7 70 2.4 N 17 22 9 12 1017.5 1017.4 0.0
04/08:00am 9.2 5.8 5.8 79 1.6 NNW 13 17 7 9 1017.4 1017.3 0.0
04/07:30am 7.0 3.8 5.3 89 0.8 N 11 13 6 7 1016.7 1016.6 0.0
04/07:00am 5.4 2.4 4.1 91 0.6 NNE 9 11 5 6 1016.3 1016.2 0.0
04/06:30am 3.5 0.1 2.0 90 0.6 N 9 11 5 6 1016.5 1016.4 0.0
04/06:00am 4.5 1.3 3.3 92 0.5 NNE 9 11 5 6 1016.5 1016.4 0.0
04/05:30am 3.6 0.3 2.6 93 0.4 N 9 9 5 5 1016.6 1016.5 0.0
04/05:00am 3.0 0.2 1.8 92 0.5 NNW 6 7 3 4 1016.6 1016.5 0.0
04/04:30am 3.4 0.6 2.1 91 0.5 N 6 7 3 4 1016.6 1016.5 0.0
04/04:00am 4.1 2.5 2.6 90 0.6 CALM 0 0 0 0 1016.6 1016.5 0.0
04/03:30am 5.0 3.6 3.5 90 0.6 CALM 0 0 0 0 1017.1 1016.9 0.0
04/03:00am 4.9 3.4 3.2 89 0.7 CALM 0 0 0 0 1017.3 1017.2 0.0
04/02:30am 6.1 4.8 4.3 88 0.8 CALM 0 0 0 0 1017.7 1017.6 0.0
04/02:00am 7.0 5.1 4.8 86 1.0 W 4 6 2 3 1018.2 1018.1 0.0
04/01:30am 6.9 4.3 4.4 84 1.1 NNE 7 9 4 5 1018.5 1018.4 0.0
04/01:00am 8.9 5.1 6.0 82 1.3 ENE 15 24 8 13 1018.7 1018.6 0.0
04/12:30am 8.6 4.5 6.2 85 1.1 ENE 17 22 9 12 1019.0 1018.9 0.0
04/12:00am 8.8 5.1 6.2 84 1.2 ENE 15 24 8 13 1019.4 1019.3 0.0
 
Date/Time
WST
Temp
°C
App
Temp
°C
Dew
Point
Rel
Hum
%
Delta-T
°C
Wind Press
QNH
hPa
Press
MSL
hPa
Rain
since 9 am
mm
Dir
 
Spd
km/h
Gust
km/h
Spd
kts
Gust
kts
03/11:30pm 9.1 5.4 6.4 83 1.3 ENE 15 22 8 12 1019.6 1019.5 0.0
03/11:00pm 9.5 6.2 6.2 80 1.5 E 13 20 7 11 1019.9 1019.8 0.0
03/10:30pm 9.8 6.4 5.8 76 1.9 E 13 19 7 10 1020.6 1020.5 0.0
03/10:00pm 10.1 7.0 5.7 74 2.0 E 11 19 6 10 1020.7 1020.6 0.0
03/09:30pm 10.4 6.5 5.2 70 2.4 ESE 15 20 8 11 1021.0 1020.9 0.0
03/09:00pm 12.3 8.6 4.3 58 3.7 E 13 19 7 10 1020.8 1020.7 0.0
03/08:30pm 12.3 8.6 4.3 58 3.7 ESE 13 19 7 10 1021.0 1020.9 0.0
03/08:00pm 11.3 8.8 4.5 63 3.1 ESE 7 9 4 5 1021.2 1021.1 0.0
03/07:30pm 11.8 8.8 4.3 60 3.4 ESE 9 11 5 6 1021.3 1021.2 0.0
03/07:00pm 12.5 10.2 4.7 59 3.6 E 6 9 3 5 1021.4 1021.3 0.0
03/06:30pm 13.3 10.9 4.5 55 4.1 E 6 7 3 4 1021.4 1021.3 0.0
03/06:00pm 14.9 12.4 4.0 48 5.1 E 6 7 3 4 1021.5 1021.4 0.0
03/05:30pm 16.1 13.4 2.5 40 6.2 NE 6 7 3 4 1021.5 1021.4 0.0
03/05:00pm 16.9 14.4 3.9 42 6.1 N 6 6 3 3 1021.9 1021.8 0.0
03/04:30pm 16.9 13.9 3.9 42 6.2 NNW 9 11 5 6 1021.8 1021.7 0.0
03/04:00pm 17.0 13.8 3.3 40 6.4 N 9 15 5 8 1021.8 1021.7 0.0
03/03:30pm 17.9 13.9 2.6 36 7.1 N 13 17 7 9 1021.8 1021.7 0.0
03/03:00pm 17.6 13.8 3.9 40 6.5 NNW 13 17 7 9 1021.9 1021.8 0.0
03/02:30pm 17.7 13.6 2.5 36 7.0 N 13 22 7 12 1021.8 1021.7 0.0
03/02:00pm 17.5 14.1 3.8 40 6.5 NNE 11 19 6 10 1021.9 1021.8 0.0
03/01:30pm 16.7 13.9 3.4 41 6.2 NW 7 11 4 6 1022.4 1022.3 0.0
03/01:00pm 16.5 12.6 3.6 42 6.0 N 13 22 7 12 1022.8 1022.7 0.0
03/12:30pm 16.3 12.3 4.7 46 5.6 N 15 22 8 12 1023.2 1023.2 0.0
03/12:00pm 15.6 12.0 5.2 50 5.0 NE 13 20 7 11 1023.4 1023.4 0.0
03/11:30am 15.3 10.8 6.1 54 4.5 NE 19 28 10 15 1023.8 1023.8 0.0
03/11:00am 14.2 9.9 5.3 55 4.2 NNE 17 24 9 13 1024.6 1024.5 0.0
03/10:30am 13.7 9.0 5.3 57 4.0 NE 19 28 10 15 1024.9 1024.8 0.0
03/10:00am 12.9 8.1 5.6 61 3.5 NE 20 33 11 18 1025.4 1025.3 0.0
03/09:30am 11.3 6.9 5.0 65 2.9 NE 17 30 9 16 1025.9 1025.8 0.0
03/09:00am 10.2 7.3 6.7 79 1.7 NE 11 17 6 9 1026.2 1026.2 0.0
03/08:30am 8.3 4.9 6.1 86 1.0 NE 13 19 7 10 1026.4 1026.4 0.0
03/08:00am 7.1 4.1 5.9 92 0.5 ENE 11 17 6 9 1026.2 1026.2 0.0
03/07:30am 5.9 3.1 5.2 95 0.3 ENE 9 15 5 8 1026.1 1026.1 0.0
03/07:00am 3.4 1.1 2.7 95 0.3 NNE 4 7 2 4 1026.0 1025.9 0.0
03/06:30am 3.2 1.2 2.5 95 0.3 ESE 2 6 1 3 1025.8 1025.7 0.0
03/06:00am 3.2 0.2 2.3 94 0.4 S 7 9 4 5 1025.6 1025.5 0.0
03/05:30am 3.9 0.7 3.0 94 0.4 SE 9 11 5 6 1025.3 1025.2 0.0
03/05:00am 4.1 0.9 3.2 94 0.4 SE 9 13 5 7 1025.0 1024.9 0.0
03/04:30am 4.6 1.1 3.6 93 0.4 SE 11 15 6 8 1025.1 1025.0 0.0
03/04:00am 5.7 2.4 4.5 92 0.5 ESE 11 17 6 9 1025.1 1025.0 0.0
03/03:30am 5.7 2.0 4.5 92 0.5 ESE 13 19 7 10 1025.3 1025.2 0.0
03/03:00am 5.7 2.4 4.5 92 0.5 SE 11 15 6 8 1025.6 1025.5 0.0
03/02:30am 6.5 2.9 5.0 90 0.7 ESE 13 19 7 10 1025.6 1025.5 0.0
03/02:00am 7.1 3.6 5.4 89 0.8 SE 13 20 7 11 1025.6 1025.5 0.0
03/01:30am 7.2 4.5 5.5 89 0.8 SE 9 15 5 8 1026.1 1026.1 0.0
03/01:00am 7.1 4.4 5.7 91 0.6 ESE 9 15 5 8 1026.3 1026.3 0.0
03/12:30am 6.4 4.1 5.0 91 0.6 SSE 6 9 3 5 1026.6 1026.6 0.0
03/12:00am 5.9 3.0 4.5 91 0.6 SE 9 13 5 7 1026.4 1026.4 0.0
 
Date/Time
WST
Temp
°C
App
Temp
°C
Dew
Point
Rel
Hum
%
Delta-T
°C
Wind Press
QNH
hPa
Press
MSL
hPa
Rain
since 9 am
mm
Dir
 
Spd
km/h
Gust
km/h
Spd
kts
Gust
kts
02/11:30pm 6.4 3.2 4.9 90 0.7 ESE 11 17 6 9 1026.5 1026.5 0.0
02/11:00pm 6.8 3.2 5.0 88 0.8 ESE 13 17 7 9 1026.5 1026.5 0.0
02/10:30pm 7.2 4.0 5.2 87 0.9 ESE 11 15 6 8 1026.5 1026.5 0.0
02/10:00pm 8.1 4.9 5.0 81 1.4 SE 11 17 6 9 1026.4 1026.4 0.0
02/09:30pm 8.6 4.7 5.2 79 1.5 ESE 15 20 8 11 1026.5 1026.5 0.0
02/09:00pm 8.0 4.6 5.8 86 1.0 E 13 20 7 11 1026.8 1026.8 0.0
02/08:30pm 8.3 5.2 5.4 82 1.3 ESE 11 17 6 9 1027.0 1027.0 0.0
02/08:00pm 9.0 5.5 5.4 78 1.6 ESE 13 20 7 11 1026.8 1026.8 0.0
02/07:30pm 10.0 6.2 5.8 75 2.0 SE 15 20 8 11 1026.7 1026.7 0.0
02/07:00pm 10.3 7.7 5.9 74 2.1 SE 9 13 5 7 1026.7 1026.7 0.0
02/06:30pm 10.0 7.9 5.8 75 2.0 SE 6 9 3 5 1026.4 1026.4 0.0
02/06:00pm 10.4 7.3 5.6 72 2.2 S 11 15 6 8 1026.0 1025.9 0.0
02/05:30pm 10.8 6.2 5.6 70 2.4 SE 19 30 10 16 1025.7 1025.6 0.0
02/05:00pm 11.3 8.3 5.8 69 2.6 SSE 11 19 6 10 1025.3 1025.2 0.0
02/04:30pm 11.8 8.4 5.9 67 2.8 SE 13 19 7 10 1025.2 1025.1 0.0
02/04:00pm 11.8 7.5 5.4 65 3.0 SE 17 24 9 13 1025.2 1025.1 0.0
02/03:30pm 12.0 8.0 5.0 62 3.3 SE 15 22 8 12 1025.1 1025.0 0.0
02/03:00pm 12.4 8.1 5.3 62 3.3 SE 17 22 9 12 1024.9 1024.8 0.0
02/02:30pm 12.3 8.2 4.3 58 3.7 SE 15 24 8 13 1025.0 1024.9 0.0
02/02:00pm 12.3 7.7 3.8 56 3.8 SE 17 24 9 13 1024.9 1024.8 0.0
02/01:30pm 12.4 7.9 4.4 58 3.7 SE 17 24 9 13 1025.2 1025.1 0.0
02/01:00pm 12.4 7.8 3.9 56 3.9 SSE 17 28 9 15 1025.4 1025.3 0.0
02/12:30pm 12.6 8.1 4.1 56 3.9 SE 17 24 9 13 1025.7 1025.6 0.0
02/12:00pm 12.3 7.7 3.5 55 4.0 SE 17 26 9 14 1026.1 1026.1 0.0
02/11:30am 11.9 6.8 3.2 55 3.9 SE 19 24 10 13 1026.5 1026.5 0.0
02/11:00am 11.5 7.0 4.3 61 3.3 SSE 17 28 9 15 1026.9 1026.9 0.0
02/10:30am 10.8 7.4 5.8 71 2.4 SSE 13 19 7 10 1027.0 1027.0 0.0
02/10:00am 10.5 6.7 5.7 72 2.2 SSE 15 22 8 12 1027.2 1027.2 0.0
02/09:30am 10.2 7.3 6.7 79 1.7 S 11 17 6 9 1027.3 1027.3 0.0
02/09:00am 8.6 5.7 6.7 88 0.9 S 11 19 6 10 1027.3 1027.3 1.2
02/08:30am 7.2 4.6 6.1 93 0.5 S 9 15 5 8 1027.2 1027.2 1.2
02/08:00am 5.4 3.0 4.5 94 0.4 SSW 6 9 3 5 1027.0 1027.0 1.2
02/07:30am 4.0 1.4 3.3 95 0.3 S 6 7 3 4 1026.5 1026.5 1.2
02/07:00am 2.8 1.1 2.1 95 0.3 CALM 0 4 0 2 1026.2 1026.2 1.2
02/06:30am 2.1 -0.8 1.4 95 0.3 SE 6 7 3 4 1026.0 1025.9 1.2
02/06:00am 1.9 -1.1 1.0 94 0.3 SSE 6 6 3 3 1025.9 1025.8 1.2
02/05:30am 2.0 0.2 1.1 94 0.3 CALM 0 0 0 0 1025.7 1025.6 1.2
02/05:00am 2.3 -0.6 1.4 94 0.3 SSW 6 7 3 4 1025.4 1025.3 1.2
02/04:30am 2.3 0.5 1.4 94 0.4 CALM 0 0 0 0 1025.2 1025.1 1.2
02/04:00am 2.7 1.0 1.7 93 0.4 CALM 0 0 0 0 1025.0 1024.9 1.2
02/03:30am 2.7 0.6 1.7 93 0.4 SSW 2 7 1 4 1025.2 1025.1 1.2
02/03:00am 3.3 1.7 2.3 93 0.4 CALM 0 0 0 0 1025.2 1025.1 1.2
02/02:30am 3.0 1.3 2.0 93 0.4 CALM 0 0 0 0 1025.3 1025.2 1.2
02/02:00am 3.4 1.8 2.4 93 0.4 CALM 0 0 0 0 1025.5 1025.4 1.2
02/01:30am 3.4 1.4 2.4 93 0.4 SSE 2 11 1 6 1025.5 1025.4 1.2
02/01:00am 2.9 1.2 1.9 93 0.4 CALM 0 0 0 0 1025.5 1025.4 1.2
02/12:30am 2.1 0.3 0.9 92 0.5 CALM 0 0 0 0 1025.6 1025.5 1.2
02/12:00am 2.9 1.2 1.7 92 0.5 CALM 0 0 0 0 1025.6 1025.5 1.2
 
Date/Time
WST
Temp
°C
App
Temp
°C
Dew
Point
Rel
Hum
%
Delta-T
°C
Wind Press
QNH
hPa
Press
MSL
hPa
Rain
since 9 am
mm
Dir
 
Spd
km/h
Gust
km/h
Spd
kts
Gust
kts
01/11:30pm 3.0 0.2 1.8 92 0.5 SW 6 7 3 4 1025.6 1025.5 1.2
01/11:00pm 3.3 0.9 2.0 91 0.5 SSW 4 7 2 4 1025.7 1025.6 1.2
01/10:30pm 3.4 1.7 1.9 90 0.6 CALM 0 0 0 0 1025.8 1025.7 1.2
01/10:00pm 3.3 1.6 1.8 90 0.6 CALM 0 0 0 0 1025.8 1025.7 1.2
01/09:30pm 3.4 1.7 1.6 88 0.7 CALM 0 0 0 0 1025.5 1025.4 1.2
01/09:00pm 4.3 1.5 2.0 85 0.9 S 6 7 3 4 1025.3 1025.2 1.2
01/08:30pm 4.9 1.9 2.3 83 1.1 SSE 7 11 4 6 1025.1 1025.0 1.2
01/08:00pm 5.2 1.9 2.6 83 1.1 SSE 9 11 5 6 1024.6 1024.5 1.2
01/07:30pm 5.6 2.7 2.6 81 1.2 SSE 7 11 4 6 1024.4 1024.3 1.2
01/07:00pm 6.5 2.5 2.9 78 1.5 SSE 13 19 7 10 1024.1 1024.1 1.2
01/06:30pm 6.9 2.9 2.8 75 1.7 S 13 19 7 10 1023.7 1023.7 1.2
01/06:00pm 7.4 2.7 3.3 75 1.8 SSE 17 24 9 13 1023.4 1023.4 1.2
01/05:30pm 8.0 3.9 4.2 77 1.7 S 15 24 8 13 1023.0 1022.9 1.2
01/05:00pm 8.1 4.1 4.7 79 1.5 SSE 15 24 8 13 1022.4 1022.3 1.2
01/04:30pm 8.7 4.9 5.6 81 1.4 S 15 20 8 11 1022.1 1022.0 1.2
01/04:00pm 7.9 3.7 5.7 86 1.0 SSW 17 28 9 15 1021.8 1021.7 1.2
01/03:30pm 11.2 6.1 3.0 57 3.6 SW 19 28 10 15 1021.1 1021.0 0.0
01/03:00pm 9.6 4.8 4.8 72 2.2 SW 19 30 10 16 1021.3 1021.2 0.0
01/02:30pm 10.0 5.1 4.0 66 2.7 SSW 19 30 10 16 1021.0 1020.9 0.0
01/02:00pm 8.5 2.1 5.1 79 1.5 SSW 28 44 15 24 1021.0 1020.9 0.0

Other Formats:

Comma delimited format used in spreadsheet applications
http://www.bom.gov.au/fwo/IDW60801/IDW60801.95637.axf

JavaScript Object Notation format (JSON) in row-major order
http://www.bom.gov.au/fwo/IDW60801/IDW60801.95637.json